sensor_id;sensor_type;location;lat;lon;timestamp;pressure;altitude;pressure_sealevel;temperature;humidity
22000;BME280;11164;48.818;2.322;2022-07-17T00:02:07;101451.66;;;23.31;25.58
22000;BME280;11164;48.818;2.322;2022-07-17T00:04:32;101445.53;;;23.23;25.68
22000;BME280;11164;48.818;2.322;2022-07-17T00:06:59;101458.56;;;23.33;25.64
22000;BME280;11164;48.818;2.322;2022-07-17T00:09:24;101462.53;;;23.15;25.54
22000;BME280;11164;48.818;2.322;2022-07-17T00:11:49;101462.16;;;23.01;25.83
22000;BME280;11164;48.818;2.322;2022-07-17T00:14:15;101444.84;;;23.06;25.88
22000;BME280;11164;48.818;2.322;2022-07-17T00:16:40;101439.56;;;22.99;25.79
22000;BME280;11164;48.818;2.322;2022-07-17T00:19:05;101448.00;;;22.88;26.10
22000;BME280;11164;48.818;2.322;2022-07-17T00:21:32;101453.91;;;23.01;25.76
22000;BME280;11164;48.818;2.322;2022-07-17T00:23:57;101450.41;;;23.16;25.65
22000;BME280;11164;48.818;2.322;2022-07-17T00:26:23;101451.78;;;23.14;25.70
22000;BME280;11164;48.818;2.322;2022-07-17T00:28:48;101451.44;;;23.05;25.64
22000;BME280;11164;48.818;2.322;2022-07-17T00:31:13;101457.84;;;23.16;25.87
22000;BME280;11164;48.818;2.322;2022-07-17T00:33:39;101460.69;;;23.26;25.95
22000;BME280;11164;48.818;2.322;2022-07-17T00:36:04;101461.78;;;23.25;25.86
22000;BME280;11164;48.818;2.322;2022-07-17T00:38:30;101455.41;;;23.19;25.68
22000;BME280;11164;48.818;2.322;2022-07-17T00:40:56;101453.44;;;23.15;25.93
22000;BME280;11164;48.818;2.322;2022-07-17T00:43:22;101447.66;;;23.16;25.74
22000;BME280;11164;48.818;2.322;2022-07-17T00:45:56;101446.75;;;23.33;26.13
22000;BME280;11164;48.818;2.322;2022-07-17T00:48:22;101443.81;;;23.12;26.13
22000;BME280;11164;48.818;2.322;2022-07-17T00:50:47;101452.56;;;23.09;25.90
22000;BME280;11164;48.818;2.322;2022-07-17T00:53:13;101451.34;;;22.95;26.39
22000;BME280;11164;48.818;2.322;2022-07-17T00:55:39;101447.66;;;22.79;26.35
22000;BME280;11164;48.818;2.322;2022-07-17T00:58:07;101453.75;;;22.86;26.28
22000;BME280;11164;48.818;2.322;2022-07-17T01:00:33;101458.03;;;22.77;26.20
22000;BME280;11164;48.818;2.322;2022-07-17T01:02:59;101457.28;;;22.81;26.53
22000;BME280;11164;48.818;2.322;2022-07-17T01:05:25;101457.84;;;22.83;26.16
22000;BME280;11164;48.818;2.322;2022-07-17T01:07:51;101459.66;;;22.73;26.53
22000;BME280;11164;48.818;2.322;2022-07-17T01:10:17;101461.22;;;22.41;26.79
22000;BME280;11164;48.818;2.322;2022-07-17T01:12:44;101466.91;;;22.35;26.84
22000;BME280;11164;48.818;2.322;2022-07-17T01:15:10;101460.47;;;22.46;26.51
22000;BME280;11164;48.818;2.322;2022-07-17T01:17:36;101467.56;;;22.64;26.59
22000;BME280;11164;48.818;2.322;2022-07-17T01:20:04;101457.69;;;22.68;26.28
22000;BME280;11164;48.818;2.322;2022-07-17T01:22:31;101444.22;;;22.66;26.58
22000;BME280;11164;48.818;2.322;2022-07-17T01:24:56;101441.28;;;22.51;26.72
22000;BME280;11164;48.818;2.322;2022-07-17T01:27:22;101455.47;;;22.43;26.99
22000;BME280;11164;48.818;2.322;2022-07-17T01:29:49;101452.94;;;22.36;26.74
22000;BME280;11164;48.818;2.322;2022-07-17T01:32:14;101453.13;;;22.29;26.93
22000;BME280;11164;48.818;2.322;2022-07-17T01:34:39;101467.22;;;22.11;27.18
22000;BME280;11164;48.818;2.322;2022-07-17T01:37:05;101461.50;;;22.18;27.07
22000;BME280;11164;48.818;2.322;2022-07-17T01:39:30;101456.38;;;22.26;27.24
22000;BME280;11164;48.818;2.322;2022-07-17T01:42:14;101455.31;;;22.27;27.11
22000;BME280;11164;48.818;2.322;2022-07-17T01:44:39;101451.41;;;22.23;27.08
22000;BME280;11164;48.818;2.322;2022-07-17T01:47:04;101442.75;;;22.09;27.14
22000;BME280;11164;48.818;2.322;2022-07-17T01:49:30;101453.25;;;22.18;27.31
22000;BME280;11164;48.818;2.322;2022-07-17T01:51:55;101448.88;;;22.17;27.09
22000;BME280;11164;48.818;2.322;2022-07-17T01:54:28;101447.38;;;22.09;27.48
22000;BME280;11164;48.818;2.322;2022-07-17T01:56:53;101446.19;;;22.00;27.61
22000;BME280;11164;48.818;2.322;2022-07-17T01:59:19;101444.63;;;22.09;27.47
22000;BME280;11164;48.818;2.322;2022-07-17T02:01:44;101445.38;;;22.26;27.39
22000;BME280;11164;48.818;2.322;2022-07-17T02:04:10;101442.59;;;22.21;26.99
22000;BME280;11164;48.818;2.322;2022-07-17T02:06:35;101438.50;;;22.24;27.08
22000;BME280;11164;48.818;2.322;2022-07-17T02:09:00;101440.19;;;22.25;27.00
22000;BME280;11164;48.818;2.322;2022-07-17T02:11:25;101439.31;;;22.24;27.15
22000;BME280;11164;48.818;2.322;2022-07-17T02:13:51;101433.84;;;22.24;26.95
22000;BME280;11164;48.818;2.322;2022-07-17T02:16:16;101438.38;;;22.14;27.25
22000;BME280;11164;48.818;2.322;2022-07-17T02:18:42;101432.19;;;22.01;27.74
22000;BME280;11164;48.818;2.322;2022-07-17T02:21:07;101415.16;;;21.99;27.43
22000;BME280;11164;48.818;2.322;2022-07-17T02:23:32;101432.19;;;22.01;27.52
22000;BME280;11164;48.818;2.322;2022-07-17T02:25:57;101437.53;;;21.91;27.78
22000;BME280;11164;48.818;2.322;2022-07-17T02:28:23;101421.31;;;22.61;26.92
22000;BME280;11164;48.818;2.322;2022-07-17T02:30:48;101427.50;;;23.38;26.16
22000;BME280;11164;48.818;2.322;2022-07-17T02:33:14;101422.91;;;23.49;26.03
22000;BME280;11164;48.818;2.322;2022-07-17T02:35:39;101422.50;;;23.83;26.18
22000;BME280;11164;48.818;2.322;2022-07-17T02:38:04;101426.78;;;23.58;26.12
22000;BME280;11164;48.818;2.322;2022-07-17T02:40:30;101429.06;;;22.64;27.11
22000;BME280;11164;48.818;2.322;2022-07-17T02:42:55;101428.34;;;22.24;27.77
22000;BME280;11164;48.818;2.322;2022-07-17T02:45:21;101428.38;;;22.02;27.67
22000;BME280;11164;48.818;2.322;2022-07-17T02:47:50;101423.44;;;21.65;28.17
22000;BME280;11164;48.818;2.322;2022-07-17T02:50:16;101429.50;;;21.67;28.23
22000;BME280;11164;48.818;2.322;2022-07-17T02:52:41;101434.50;;;21.70;28.10
22000;BME280;11164;48.818;2.322;2022-07-17T02:55:09;101433.03;;;21.63;28.02
22000;BME280;11164;48.818;2.322;2022-07-17T02:57:38;101429.63;;;21.55;28.16
22000;BME280;11164;48.818;2.322;2022-07-17T03:00:05;101426.56;;;21.52;28.14
22000;BME280;11164;48.818;2.322;2022-07-17T03:02:31;101415.16;;;21.60;27.78
22000;BME280;11164;48.818;2.322;2022-07-17T03:04:56;101424.31;;;21.66;27.97
22000;BME280;11164;48.818;2.322;2022-07-17T03:07:22;101419.06;;;21.64;27.95
22000;BME280;11164;48.818;2.322;2022-07-17T03:09:47;101428.94;;;21.65;27.92
22000;BME280;11164;48.818;2.322;2022-07-17T03:12:12;101424.16;;;21.55;28.07
22000;BME280;11164;48.818;2.322;2022-07-17T03:14:38;101424.56;;;21.47;28.04
22000;BME280;11164;48.818;2.322;2022-07-17T03:17:03;101419.66;;;21.49;28.05
22000;BME280;11164;48.818;2.322;2022-07-17T03:19:29;101422.66;;;21.48;28.09
22000;BME280;11164;48.818;2.322;2022-07-17T03:21:54;101418.53;;;21.45;28.09
22000;BME280;11164;48.818;2.322;2022-07-17T03:24:19;101430.88;;;21.48;28.12
22000;BME280;11164;48.818;2.322;2022-07-17T03:26:45;101423.59;;;21.36;28.50
22000;BME280;11164;48.818;2.322;2022-07-17T03:29:10;101421.94;;;21.35;28.30
22000;BME280;11164;48.818;2.322;2022-07-17T03:31:36;101423.84;;;21.35;28.32
22000;BME280;11164;48.818;2.322;2022-07-17T03:34:01;101421.59;;;21.32;28.25
22000;BME280;11164;48.818;2.322;2022-07-17T03:36:27;101434.50;;;21.31;28.38
22000;BME280;11164;48.818;2.322;2022-07-17T03:38:52;101430.22;;;21.41;28.46
22000;BME280;11164;48.818;2.322;2022-07-17T03:41:17;101437.06;;;21.38;28.16
22000;BME280;11164;48.818;2.322;2022-07-17T03:43:43;101435.66;;;21.35;28.22
22000;BME280;11164;48.818;2.322;2022-07-17T03:46:08;101439.81;;;21.38;28.32
22000;BME280;11164;48.818;2.322;2022-07-17T03:48:34;101440.84;;;21.20;28.53
22000;BME280;11164;48.818;2.322;2022-07-17T03:50:59;101443.25;;;21.16;28.47
22000;BME280;11164;48.818;2.322;2022-07-17T03:53:25;101440.59;;;21.22;28.50
22000;BME280;11164;48.818;2.322;2022-07-17T03:55:50;101442.03;;;21.24;28.48
22000;BME280;11164;48.818;2.322;2022-07-17T03:58:15;101444.41;;;21.21;28.52
22000;BME280;11164;48.818;2.322;2022-07-17T04:00:41;101442.84;;;21.08;28.55
22000;BME280;11164;48.818;2.322;2022-07-17T04:03:06;101440.94;;;21.08;28.42
22000;BME280;11164;48.818;2.322;2022-07-17T04:05:31;101441.88;;;21.14;28.64
22000;BME280;11164;48.818;2.322;2022-07-17T04:07:57;101429.22;;;21.13;28.61
22000;BME280;11164;48.818;2.322;2022-07-17T04:10:22;101436.78;;;21.23;28.51
22000;BME280;11164;48.818;2.322;2022-07-17T04:12:48;101432.75;;;21.25;28.49
22000;BME280;11164;48.818;2.322;2022-07-17T04:15:13;101430.91;;;21.31;28.49
22000;BME280;11164;48.818;2.322;2022-07-17T04:17:58;101435.88;;;21.34;28.32
22000;BME280;11164;48.818;2.322;2022-07-17T04:20:24;101440.34;;;21.23;28.41
22000;BME280;11164;48.818;2.322;2022-07-17T04:22:49;101451.09;;;21.25;28.57
22000;BME280;11164;48.818;2.322;2022-07-17T04:25:14;101462.41;;;21.28;28.52
22000;BME280;11164;48.818;2.322;2022-07-17T04:27:40;101467.09;;;21.28;28.55
22000;BME280;11164;48.818;2.322;2022-07-17T04:30:06;101467.78;;;21.23;28.75
22000;BME280;11164;48.818;2.322;2022-07-17T04:32:31;101470.34;;;21.13;28.64
22000;BME280;11164;48.818;2.322;2022-07-17T04:34:56;101477.94;;;21.23;28.60
22000;BME280;11164;48.818;2.322;2022-07-17T04:37:22;101466.94;;;21.06;28.84
22000;BME280;11164;48.818;2.322;2022-07-17T04:39:47;101476.66;;;21.13;28.69
22000;BME280;11164;48.818;2.322;2022-07-17T04:42:12;101474.69;;;21.26;28.32
22000;BME280;11164;48.818;2.322;2022-07-17T04:44:38;101478.06;;;21.28;28.75
22000;BME280;11164;48.818;2.322;2022-07-17T04:47:03;101483.28;;;21.29;28.73
22000;BME280;11164;48.818;2.322;2022-07-17T04:49:29;101491.53;;;21.29;28.62
22000;BME280;11164;48.818;2.322;2022-07-17T04:51:54;101486.97;;;21.23;28.96
22000;BME280;11164;48.818;2.322;2022-07-17T04:54:19;101490.91;;;21.27;28.47
22000;BME280;11164;48.818;2.322;2022-07-17T04:56:45;101491.09;;;21.37;28.70
22000;BME280;11164;48.818;2.322;2022-07-17T04:59:10;101487.50;;;21.37;28.68
22000;BME280;11164;48.818;2.322;2022-07-17T05:01:35;101490.19;;;21.49;28.68
22000;BME280;11164;48.818;2.322;2022-07-17T05:04:01;101492.44;;;21.52;28.74
22000;BME280;11164;48.818;2.322;2022-07-17T05:06:27;101492.84;;;21.61;28.36
22000;BME280;11164;48.818;2.322;2022-07-17T05:08:52;101499.88;;;21.73;28.58
22000;BME280;11164;48.818;2.322;2022-07-17T05:11:18;101495.59;;;21.83;28.40
22000;BME280;11164;48.818;2.322;2022-07-17T05:13:43;101505.75;;;21.99;28.51
22000;BME280;11164;48.818;2.322;2022-07-17T05:16:08;101499.53;;;21.87;28.49
22000;BME280;11164;48.818;2.322;2022-07-17T05:18:34;101505.31;;;22.07;28.39
22000;BME280;11164;48.818;2.322;2022-07-17T05:20:59;101506.88;;;22.20;28.29
22000;BME280;11164;48.818;2.322;2022-07-17T05:23:24;101511.84;;;22.23;28.09
22000;BME280;11164;48.818;2.322;2022-07-17T05:25:50;101510.75;;;22.46;27.77
22000;BME280;11164;48.818;2.322;2022-07-17T05:28:15;101507.13;;;22.19;28.32
22000;BME280;11164;48.818;2.322;2022-07-17T05:30:40;101501.72;;;22.07;28.49
22000;BME280;11164;48.818;2.322;2022-07-17T05:33:06;101505.91;;;22.09;28.35
22000;BME280;11164;48.818;2.322;2022-07-17T05:35:31;101508.41;;;22.11;28.61
22000;BME280;11164;48.818;2.322;2022-07-17T05:37:56;101507.63;;;22.16;28.55
22000;BME280;11164;48.818;2.322;2022-07-17T05:40:22;101510.69;;;21.97;28.49
22000;BME280;11164;48.818;2.322;2022-07-17T05:42:47;101513.50;;;22.24;28.15
22000;BME280;11164;48.818;2.322;2022-07-17T05:45:12;101518.00;;;22.58;27.77
22000;BME280;11164;48.818;2.322;2022-07-17T05:47:38;101512.00;;;22.83;27.73
22000;BME280;11164;48.818;2.322;2022-07-17T05:50:03;101512.00;;;23.10;27.09
22000;BME280;11164;48.818;2.322;2022-07-17T05:52:29;101516.31;;;23.01;27.51
22000;BME280;11164;48.818;2.322;2022-07-17T05:54:54;101510.59;;;23.08;27.15
22000;BME280;11164;48.818;2.322;2022-07-17T05:57:20;101518.94;;;22.91;27.68
22000;BME280;11164;48.818;2.322;2022-07-17T05:59:45;101510.75;;;22.68;27.78
22000;BME280;11164;48.818;2.322;2022-07-17T06:02:10;101504.88;;;22.60;27.72
22000;BME280;11164;48.818;2.322;2022-07-17T06:04:36;101513.13;;;22.87;27.60
22000;BME280;11164;48.818;2.322;2022-07-17T06:07:01;101519.00;;;22.96;27.44
22000;BME280;11164;48.818;2.322;2022-07-17T06:09:27;101517.44;;;22.56;27.85
22000;BME280;11164;48.818;2.322;2022-07-17T06:11:52;101520.38;;;22.93;27.47
22000;BME280;11164;48.818;2.322;2022-07-17T06:14:17;101513.56;;;23.01;27.41
22000;BME280;11164;48.818;2.322;2022-07-17T06:16:43;101512.84;;;22.83;27.93
22000;BME280;11164;48.818;2.322;2022-07-17T06:19:08;101508.53;;;22.93;27.81
22000;BME280;11164;48.818;2.322;2022-07-17T06:21:33;101517.81;;;23.46;26.91
22000;BME280;11164;48.818;2.322;2022-07-17T06:23:59;101513.53;;;23.60;26.75
22000;BME280;11164;48.818;2.322;2022-07-17T06:26:24;101512.91;;;23.48;27.24
22000;BME280;11164;48.818;2.322;2022-07-17T06:28:49;101520.66;;;23.24;27.19
22000;BME280;11164;48.818;2.322;2022-07-17T06:31:15;101517.91;;;23.24;27.19
22000;BME280;11164;48.818;2.322;2022-07-17T06:33:40;101518.69;;;23.19;27.09
22000;BME280;11164;48.818;2.322;2022-07-17T06:36:06;101516.53;;;23.27;27.12
22000;BME280;11164;48.818;2.322;2022-07-17T06:38:34;101510.69;;;23.45;26.83
22000;BME280;11164;48.818;2.322;2022-07-17T06:41:00;101515.53;;;23.33;27.29
22000;BME280;11164;48.818;2.322;2022-07-17T06:43:26;101519.22;;;23.49;26.76
22000;BME280;11164;48.818;2.322;2022-07-17T06:45:51;101510.88;;;23.71;26.60
22000;BME280;11164;48.818;2.322;2022-07-17T06:48:20;101513.34;;;23.77;26.58
22000;BME280;11164;48.818;2.322;2022-07-17T06:50:45;101492.53;;;23.49;27.04
22000;BME280;11164;48.818;2.322;2022-07-17T06:53:10;101494.91;;;23.35;26.76
22000;BME280;11164;48.818;2.322;2022-07-17T06:55:36;101500.38;;;23.68;26.53
22000;BME280;11164;48.818;2.322;2022-07-17T06:58:01;101498.91;;;23.97;25.89
22000;BME280;11164;48.818;2.322;2022-07-17T07:00:26;101506.25;;;24.34;25.89
22000;BME280;11164;48.818;2.322;2022-07-17T07:02:52;101503.34;;;24.62;25.58
22000;BME280;11164;48.818;2.322;2022-07-17T07:05:17;101502.00;;;24.90;25.14
22000;BME280;11164;48.818;2.322;2022-07-17T07:07:42;101505.59;;;25.11;25.04
22000;BME280;11164;48.818;2.322;2022-07-17T07:10:08;101508.31;;;24.65;25.59
22000;BME280;11164;48.818;2.322;2022-07-17T07:12:33;101498.94;;;24.76;25.21
22000;BME280;11164;48.818;2.322;2022-07-17T07:14:59;101516.66;;;25.11;24.78
22000;BME280;11164;48.818;2.322;2022-07-17T07:17:24;101512.28;;;25.20;24.81
22000;BME280;11164;48.818;2.322;2022-07-17T07:19:50;101517.53;;;25.22;24.80
22000;BME280;11164;48.818;2.322;2022-07-17T07:22:15;101513.38;;;25.35;24.63
22000;BME280;11164;48.818;2.322;2022-07-17T07:24:40;101494.88;;;25.25;24.41
22000;BME280;11164;48.818;2.322;2022-07-17T07:27:06;101509.50;;;25.51;24.24
22000;BME280;11164;48.818;2.322;2022-07-17T07:29:31;101516.13;;;25.71;24.58
22000;BME280;11164;48.818;2.322;2022-07-17T07:31:56;101509.75;;;25.80;24.32
22000;BME280;11164;48.818;2.322;2022-07-17T07:34:22;101514.19;;;25.61;24.13
22000;BME280;11164;48.818;2.322;2022-07-17T07:36:47;101506.75;;;25.25;24.57
22000;BME280;11164;48.818;2.322;2022-07-17T07:39:12;101508.94;;;25.49;24.17
22000;BME280;11164;48.818;2.322;2022-07-17T07:41:38;101510.00;;;25.89;24.16
22000;BME280;11164;48.818;2.322;2022-07-17T07:44:04;101502.84;;;25.62;24.28
22000;BME280;11164;48.818;2.322;2022-07-17T07:46:29;101499.56;;;25.76;24.16
22000;BME280;11164;48.818;2.322;2022-07-17T07:48:54;101501.72;;;25.84;24.20
22000;BME280;11164;48.818;2.322;2022-07-17T07:51:20;101499.56;;;25.81;24.01
22000;BME280;11164;48.818;2.322;2022-07-17T07:53:45;101501.16;;;25.97;24.00
22000;BME280;11164;48.818;2.322;2022-07-17T07:56:10;101501.16;;;25.97;23.94
22000;BME280;11164;48.818;2.322;2022-07-17T07:58:37;101511.81;;;26.30;23.71
22000;BME280;11164;48.818;2.322;2022-07-17T08:01:02;101513.94;;;26.48;23.43
22000;BME280;11164;48.818;2.322;2022-07-17T08:03:28;101511.72;;;26.55;23.29
22000;BME280;11164;48.818;2.322;2022-07-17T08:05:53;101509.53;;;26.52;23.26
22000;BME280;11164;48.818;2.322;2022-07-17T08:08:19;101509.28;;;26.44;23.43
22000;BME280;11164;48.818;2.322;2022-07-17T08:10:44;101514.06;;;26.17;23.75
22000;BME280;11164;48.818;2.322;2022-07-17T08:13:09;101507.22;;;25.99;23.73
22000;BME280;11164;48.818;2.322;2022-07-17T08:15:35;101504.78;;;25.72;24.11
22000;BME280;11164;48.818;2.322;2022-07-17T08:18:01;101503.41;;;25.70;23.93
22000;BME280;11164;48.818;2.322;2022-07-17T08:20:26;101504.44;;;26.04;23.63
22000;BME280;11164;48.818;2.322;2022-07-17T08:22:52;101507.75;;;26.72;23.27
22000;BME280;11164;48.818;2.322;2022-07-17T08:25:17;101508.88;;;26.66;23.10
22000;BME280;11164;48.818;2.322;2022-07-17T08:27:43;101512.06;;;26.83;22.92
22000;BME280;11164;48.818;2.322;2022-07-17T08:30:11;101511.06;;;27.13;22.89
22000;BME280;11164;48.818;2.322;2022-07-17T08:32:37;101503.22;;;27.26;22.62
22000;BME280;11164;48.818;2.322;2022-07-17T08:35:03;101512.78;;;27.39;22.47
22000;BME280;11164;48.818;2.322;2022-07-17T08:37:28;101509.16;;;27.43;22.60
22000;BME280;11164;48.818;2.322;2022-07-17T08:39:54;101507.69;;;27.56;22.53
22000;BME280;11164;48.818;2.322;2022-07-17T08:42:20;101501.91;;;27.47;22.35
22000;BME280;11164;48.818;2.322;2022-07-17T08:44:46;101505.25;;;26.70;22.97
22000;BME280;11164;48.818;2.322;2022-07-17T08:47:12;101505.06;;;26.56;22.98
22000;BME280;11164;48.818;2.322;2022-07-17T08:49:46;101505.69;;;26.93;22.53
22000;BME280;11164;48.818;2.322;2022-07-17T08:52:15;101504.59;;;27.28;22.46
22000;BME280;11164;48.818;2.322;2022-07-17T08:54:40;101501.88;;;27.52;21.87
22000;BME280;11164;48.818;2.322;2022-07-17T08:57:07;101500.97;;;27.62;21.92
22000;BME280;11164;48.818;2.322;2022-07-17T08:59:34;101500.81;;;27.78;21.71
22000;BME280;11164;48.818;2.322;2022-07-17T09:02:00;101508.38;;;27.96;21.73
22000;BME280;11164;48.818;2.322;2022-07-17T09:04:25;101502.97;;;28.10;21.51
22000;BME280;11164;48.818;2.322;2022-07-17T09:07:00;101493.88;;;27.75;20.80
22000;BME280;11164;48.818;2.322;2022-07-17T09:09:27;101499.34;;;28.09;21.63
22000;BME280;11164;48.818;2.322;2022-07-17T09:11:53;101496.31;;;27.82;21.80
22000;BME280;11164;48.818;2.322;2022-07-17T09:14:21;101498.25;;;28.11;21.47
22000;BME280;11164;48.818;2.322;2022-07-17T09:16:51;101502.06;;;28.15;21.44
22000;BME280;11164;48.818;2.322;2022-07-17T09:19:28;101494.06;;;27.84;20.58
22000;BME280;11164;48.818;2.322;2022-07-17T09:22:15;101505.91;;;27.36;20.82
22000;BME280;11164;48.818;2.322;2022-07-17T09:24:46;101497.47;;;27.17;21.41
22000;BME280;11164;48.818;2.322;2022-07-17T09:27:14;101499.06;;;27.58;21.59
22000;BME280;11164;48.818;2.322;2022-07-17T09:29:55;101499.56;;;27.89;21.09
22000;BME280;11164;48.818;2.322;2022-07-17T09:32:22;101496.00;;;27.59;21.27
22000;BME280;11164;48.818;2.322;2022-07-17T09:34:49;101497.88;;;27.93;21.00
22000;BME280;11164;48.818;2.322;2022-07-17T09:37:15;101499.22;;;28.20;20.71
22000;BME280;11164;48.818;2.322;2022-07-17T09:39:40;101496.84;;;27.84;21.20
22000;BME280;11164;48.818;2.322;2022-07-17T09:42:06;101510.47;;;27.22;21.43
22000;BME280;11164;48.818;2.322;2022-07-17T09:44:32;101517.00;;;27.31;21.47
22000;BME280;11164;48.818;2.322;2022-07-17T09:46:57;101505.13;;;27.30;21.27
22000;BME280;11164;48.818;2.322;2022-07-17T09:49:26;101499.38;;;27.56;21.17
22000;BME280;11164;48.818;2.322;2022-07-17T09:51:53;101502.69;;;27.58;20.84
22000;BME280;11164;48.818;2.322;2022-07-17T09:54:21;101499.50;;;27.70;20.75
22000;BME280;11164;48.818;2.322;2022-07-17T09:56:49;101500.34;;;27.70;20.60
22000;BME280;11164;48.818;2.322;2022-07-17T09:59:16;101491.72;;;27.72;20.50
22000;BME280;11164;48.818;2.322;2022-07-17T10:01:43;101494.72;;;28.05;20.16
22000;BME280;11164;48.818;2.322;2022-07-17T10:04:09;101499.72;;;27.98;20.45
22000;BME280;11164;48.818;2.322;2022-07-17T10:06:36;101501.38;;;27.75;20.52
22000;BME280;11164;48.818;2.322;2022-07-17T10:09:02;101502.59;;;27.93;20.20
22000;BME280;11164;48.818;2.322;2022-07-17T10:11:30;101504.97;;;27.99;20.05
22000;BME280;11164;48.818;2.322;2022-07-17T10:14:02;101502.22;;;27.99;20.07
22000;BME280;11164;48.818;2.322;2022-07-17T10:16:29;101507.19;;;28.26;19.65
22000;BME280;11164;48.818;2.322;2022-07-17T10:18:56;101507.31;;;28.16;19.57
22000;BME280;11164;48.818;2.322;2022-07-17T10:21:23;101502.44;;;28.27;19.49
22000;BME280;11164;48.818;2.322;2022-07-17T10:26:30;101506.16;;;28.41;19.35
22000;BME280;11164;48.818;2.322;2022-07-17T10:28:56;101510.38;;;28.58;18.83
22000;BME280;11164;48.818;2.322;2022-07-17T10:31:26;101521.28;;;28.73;18.65
22000;BME280;11164;48.818;2.322;2022-07-17T10:34:10;101512.56;;;28.99;18.71
22000;BME280;11164;48.818;2.322;2022-07-17T10:39:18;101519.16;;;29.03;17.82
22000;BME280;11164;48.818;2.322;2022-07-17T10:41:55;101516.25;;;28.75;19.12
22000;BME280;11164;48.818;2.322;2022-07-17T10:44:31;101518.88;;;28.86;18.34
22000;BME280;11164;48.818;2.322;2022-07-17T10:47:00;101521.81;;;28.08;19.34
22000;BME280;11164;48.818;2.322;2022-07-17T10:49:26;101517.41;;;28.31;19.35
22000;BME280;11164;48.818;2.322;2022-07-17T10:51:52;101518.13;;;28.61;19.06
22000;BME280;11164;48.818;2.322;2022-07-17T10:54:32;101517.81;;;29.00;17.36
22000;BME280;11164;48.818;2.322;2022-07-17T10:57:00;101511.44;;;28.62;18.48
22000;BME280;11164;48.818;2.322;2022-07-17T10:59:26;101518.06;;;28.42;18.88
22000;BME280;11164;48.818;2.322;2022-07-17T11:01:57;101503.06;;;28.24;18.52
22000;BME280;11164;48.818;2.322;2022-07-17T11:04:23;101507.66;;;28.53;18.82
22000;BME280;11164;48.818;2.322;2022-07-17T11:06:48;101509.06;;;28.74;18.22
22000;BME280;11164;48.818;2.322;2022-07-17T11:09:14;101503.25;;;28.90;18.43
22000;BME280;11164;48.818;2.322;2022-07-17T11:14:13;101494.19;;;28.65;18.32
22000;BME280;11164;48.818;2.322;2022-07-17T11:19:21;101499.34;;;28.53;17.89
22000;BME280;11164;48.818;2.322;2022-07-17T11:21:47;101504.16;;;29.04;16.84
22000;BME280;11164;48.818;2.322;2022-07-17T11:24:13;101494.56;;;28.77;18.26
22000;BME280;11164;48.818;2.322;2022-07-17T11:26:39;101500.19;;;28.72;17.90
22000;BME280;11164;48.818;2.322;2022-07-17T11:29:06;101482.88;;;28.80;17.76
22000;BME280;11164;48.818;2.322;2022-07-17T11:31:31;101490.44;;;28.94;17.49
22000;BME280;11164;48.818;2.322;2022-07-17T11:33:59;101479.69;;;29.06;17.86
22000;BME280;11164;48.818;2.322;2022-07-17T11:38:51;101478.09;;;29.19;17.26
22000;BME280;11164;48.818;2.322;2022-07-17T11:41:17;101471.25;;;29.11;17.50
22000;BME280;11164;48.818;2.322;2022-07-17T11:43:43;101473.56;;;28.90;17.82
22000;BME280;11164;48.818;2.322;2022-07-17T11:46:09;101475.13;;;28.96;17.15
22000;BME280;11164;48.818;2.322;2022-07-17T11:48:34;101476.25;;;29.14;17.43
22000;BME280;11164;48.818;2.322;2022-07-17T11:51:00;101475.84;;;29.21;17.03
22000;BME280;11164;48.818;2.322;2022-07-17T11:53:36;101481.13;;;29.36;16.46
22000;BME280;11164;48.818;2.322;2022-07-17T11:56:03;101473.66;;;29.51;16.69
22000;BME280;11164;48.818;2.322;2022-07-17T11:58:40;101464.38;;;29.55;16.08
22000;BME280;11164;48.818;2.322;2022-07-17T12:01:06;101455.88;;;29.19;17.33
22000;BME280;11164;48.818;2.322;2022-07-17T12:03:31;101453.78;;;28.78;17.05
22000;BME280;11164;48.818;2.322;2022-07-17T12:05:57;101454.09;;;29.09;17.28
22000;BME280;11164;48.818;2.322;2022-07-17T12:08:23;101452.63;;;29.45;16.62
22000;BME280;11164;48.818;2.322;2022-07-17T12:10:59;101439.28;;;29.61;15.96
22000;BME280;11164;48.818;2.322;2022-07-17T12:13:37;101435.66;;;29.46;16.55
22000;BME280;11164;48.818;2.322;2022-07-17T12:18:55;101424.34;;;29.56;16.23
22000;BME280;11164;48.818;2.322;2022-07-17T12:21:21;101437.38;;;29.75;16.57
22000;BME280;11164;48.818;2.322;2022-07-17T12:23:57;101421.38;;;29.94;15.94
22000;BME280;11164;48.818;2.322;2022-07-17T12:26:23;101418.16;;;30.15;15.95
22000;BME280;11164;48.818;2.322;2022-07-17T12:28:48;101410.63;;;30.15;16.37
22000;BME280;11164;48.818;2.322;2022-07-17T12:31:14;101414.72;;;30.18;16.59
22000;BME280;11164;48.818;2.322;2022-07-17T12:33:40;101417.38;;;30.37;15.99
22000;BME280;11164;48.818;2.322;2022-07-17T12:36:06;101411.25;;;30.26;16.18
22000;BME280;11164;48.818;2.322;2022-07-17T12:38:31;101405.69;;;30.26;16.17
22000;BME280;11164;48.818;2.322;2022-07-17T12:40:57;101411.09;;;30.45;15.94
22000;BME280;11164;48.818;2.322;2022-07-17T12:43:24;101411.81;;;30.74;16.04
22000;BME280;11164;48.818;2.322;2022-07-17T12:45:50;101403.00;;;31.03;15.63
22000;BME280;11164;48.818;2.322;2022-07-17T12:48:16;101389.97;;;31.52;15.30
22000;BME280;11164;48.818;2.322;2022-07-17T12:50:42;101400.75;;;31.14;15.50
22000;BME280;11164;48.818;2.322;2022-07-17T12:53:07;101395.69;;;31.47;15.58
22000;BME280;11164;48.818;2.322;2022-07-17T12:55:33;101402.13;;;31.56;15.10
22000;BME280;11164;48.818;2.322;2022-07-17T12:57:59;101394.28;;;31.67;15.33
22000;BME280;11164;48.818;2.322;2022-07-17T13:00:24;101390.34;;;31.68;15.30
22000;BME280;11164;48.818;2.322;2022-07-17T13:02:50;101392.19;;;31.73;15.55